sensor_id;sensor_type;location;lat;lon;timestamp;P1;durP1;ratioP1;P2;durP2;ratioP2
8714;SDS011;4394;51.208;8.904;2024-03-08T00:01:26;22.90;;;14.50;;
8714;SDS011;4394;51.208;8.904;2024-03-08T00:04:15;25.17;;;14.50;;
8714;SDS011;4394;51.208;8.904;2024-03-08T00:07:04;24.80;;;15.43;;
8714;SDS011;4394;51.208;8.904;2024-03-08T00:09:53;24.77;;;14.77;;
8714;SDS011;4394;51.208;8.904;2024-03-08T00:12:42;24.13;;;14.57;;
8714;SDS011;4394;51.208;8.904;2024-03-08T00:15:31;27.60;;;15.23;;
8714;SDS011;4394;51.208;8.904;2024-03-08T00:18:20;23.67;;;14.93;;
8714;SDS011;4394;51.208;8.904;2024-03-08T00:21:08;23.17;;;14.90;;
8714;SDS011;4394;51.208;8.904;2024-03-08T00:23:59;23.67;;;14.53;;
8714;SDS011;4394;51.208;8.904;2024-03-08T00:26:48;24.53;;;15.03;;
8714;SDS011;4394;51.208;8.904;2024-03-08T00:29:36;23.60;;;14.87;;
8714;SDS011;4394;51.208;8.904;2024-03-08T00:32:25;28.03;;;14.77;;
8714;SDS011;4394;51.208;8.904;2024-03-08T00:35:14;25.70;;;14.60;;
8714;SDS011;4394;51.208;8.904;2024-03-08T00:38:02;24.23;;;13.67;;
8714;SDS011;4394;51.208;8.904;2024-03-08T00:40:52;25.73;;;14.57;;
8714;SDS011;4394;51.208;8.904;2024-03-08T00:43:40;24.30;;;14.20;;
8714;SDS011;4394;51.208;8.904;2024-03-08T00:46:28;26.23;;;15.60;;
8714;SDS011;4394;51.208;8.904;2024-03-08T00:49:18;22.40;;;13.97;;
8714;SDS011;4394;51.208;8.904;2024-03-08T00:52:06;27.37;;;15.60;;
8714;SDS011;4394;51.208;8.904;2024-03-08T00:54:54;26.40;;;14.20;;
8714;SDS011;4394;51.208;8.904;2024-03-08T00:57:44;24.87;;;14.53;;
8714;SDS011;4394;51.208;8.904;2024-03-08T01:00:33;26.90;;;15.33;;
8714;SDS011;4394;51.208;8.904;2024-03-08T01:03:21;26.67;;;15.03;;
8714;SDS011;4394;51.208;8.904;2024-03-08T01:06:10;26.47;;;14.97;;
8714;SDS011;4394;51.208;8.904;2024-03-08T01:08:58;25.83;;;15.23;;
8714;SDS011;4394;51.208;8.904;2024-03-08T01:11:47;23.43;;;13.97;;
8714;SDS011;4394;51.208;8.904;2024-03-08T01:14:37;24.37;;;14.77;;
8714;SDS011;4394;51.208;8.904;2024-03-08T01:17:25;26.63;;;14.87;;
8714;SDS011;4394;51.208;8.904;2024-03-08T01:20:14;28.13;;;15.13;;
8714;SDS011;4394;51.208;8.904;2024-03-08T01:23:04;23.63;;;14.20;;
8714;SDS011;4394;51.208;8.904;2024-03-08T01:25:53;27.57;;;15.27;;
8714;SDS011;4394;51.208;8.904;2024-03-08T01:28:44;26.93;;;14.90;;
8714;SDS011;4394;51.208;8.904;2024-03-08T01:31:33;26.03;;;15.50;;
8714;SDS011;4394;51.208;8.904;2024-03-08T01:34:23;26.40;;;14.90;;
8714;SDS011;4394;51.208;8.904;2024-03-08T01:37:11;25.13;;;15.57;;
8714;SDS011;4394;51.208;8.904;2024-03-08T01:40:01;27.40;;;15.67;;
8714;SDS011;4394;51.208;8.904;2024-03-08T01:42:50;26.57;;;15.47;;
8714;SDS011;4394;51.208;8.904;2024-03-08T01:45:39;24.47;;;15.07;;
8714;SDS011;4394;51.208;8.904;2024-03-08T01:48:29;25.53;;;14.97;;
8714;SDS011;4394;51.208;8.904;2024-03-08T01:51:18;27.40;;;16.80;;
8714;SDS011;4394;51.208;8.904;2024-03-08T01:54:06;28.27;;;16.20;;
8714;SDS011;4394;51.208;8.904;2024-03-08T01:56:56;28.83;;;15.73;;
8714;SDS011;4394;51.208;8.904;2024-03-08T01:59:45;25.47;;;15.03;;
8714;SDS011;4394;51.208;8.904;2024-03-08T02:02:35;25.03;;;15.03;;
8714;SDS011;4394;51.208;8.904;2024-03-08T02:05:27;25.60;;;15.17;;
8714;SDS011;4394;51.208;8.904;2024-03-08T02:08:15;27.60;;;16.07;;
8714;SDS011;4394;51.208;8.904;2024-03-08T02:11:04;28.97;;;15.67;;
8714;SDS011;4394;51.208;8.904;2024-03-08T02:13:52;29.13;;;15.83;;
8714;SDS011;4394;51.208;8.904;2024-03-08T02:16:41;27.00;;;15.87;;
8714;SDS011;4394;51.208;8.904;2024-03-08T02:19:29;25.23;;;15.37;;
8714;SDS011;4394;51.208;8.904;2024-03-08T02:22:20;29.83;;;16.80;;
8714;SDS011;4394;51.208;8.904;2024-03-08T02:25:09;26.07;;;15.33;;
8714;SDS011;4394;51.208;8.904;2024-03-08T02:27:58;28.93;;;15.90;;
8714;SDS011;4394;51.208;8.904;2024-03-08T02:30:46;26.00;;;15.70;;
8714;SDS011;4394;51.208;8.904;2024-03-08T02:33:35;25.00;;;15.37;;
8714;SDS011;4394;51.208;8.904;2024-03-08T02:36:23;28.63;;;16.07;;
8714;SDS011;4394;51.208;8.904;2024-03-08T02:39:13;30.83;;;16.13;;
8714;SDS011;4394;51.208;8.904;2024-03-08T02:42:02;27.27;;;16.13;;
8714;SDS011;4394;51.208;8.904;2024-03-08T02:44:50;28.53;;;16.10;;
8714;SDS011;4394;51.208;8.904;2024-03-08T02:47:39;28.93;;;16.53;;
8714;SDS011;4394;51.208;8.904;2024-03-08T02:50:28;28.00;;;15.80;;
8714;SDS011;4394;51.208;8.904;2024-03-08T02:53:16;29.13;;;17.17;;
8714;SDS011;4394;51.208;8.904;2024-03-08T02:56:07;26.53;;;15.67;;
8714;SDS011;4394;51.208;8.904;2024-03-08T02:58:59;31.10;;;17.00;;
8714;SDS011;4394;51.208;8.904;2024-03-08T03:01:47;28.93;;;16.80;;
8714;SDS011;4394;51.208;8.904;2024-03-08T03:04:35;32.73;;;17.43;;
8714;SDS011;4394;51.208;8.904;2024-03-08T03:07:24;29.70;;;16.67;;
8714;SDS011;4394;51.208;8.904;2024-03-08T03:10:14;27.07;;;16.37;;
8714;SDS011;4394;51.208;8.904;2024-03-08T03:13:05;29.77;;;16.80;;
8714;SDS011;4394;51.208;8.904;2024-03-08T03:15:55;31.97;;;17.30;;
8714;SDS011;4394;51.208;8.904;2024-03-08T03:18:44;30.17;;;16.77;;
8714;SDS011;4394;51.208;8.904;2024-03-08T03:21:33;30.17;;;17.03;;
8714;SDS011;4394;51.208;8.904;2024-03-08T03:24:22;27.10;;;16.80;;
8714;SDS011;4394;51.208;8.904;2024-03-08T03:27:10;32.10;;;18.17;;
8714;SDS011;4394;51.208;8.904;2024-03-08T03:30:00;29.97;;;17.47;;
8714;SDS011;4394;51.208;8.904;2024-03-08T03:33:08;30.50;;;16.90;;
8714;SDS011;4394;51.208;8.904;2024-03-08T03:35:58;29.93;;;16.83;;
8714;SDS011;4394;51.208;8.904;2024-03-08T03:38:47;29.47;;;16.40;;
8714;SDS011;4394;51.208;8.904;2024-03-08T03:41:35;31.47;;;17.03;;
8714;SDS011;4394;51.208;8.904;2024-03-08T03:44:25;28.60;;;16.33;;
8714;SDS011;4394;51.208;8.904;2024-03-08T03:47:15;31.97;;;17.90;;
8714;SDS011;4394;51.208;8.904;2024-03-08T03:50:04;26.53;;;16.77;;
8714;SDS011;4394;51.208;8.904;2024-03-08T03:52:53;29.97;;;16.87;;
8714;SDS011;4394;51.208;8.904;2024-03-08T03:55:42;27.17;;;17.07;;
8714;SDS011;4394;51.208;8.904;2024-03-08T03:58:30;29.43;;;17.27;;
8714;SDS011;4394;51.208;8.904;2024-03-08T04:01:18;32.77;;;18.03;;
8714;SDS011;4394;51.208;8.904;2024-03-08T04:04:08;28.80;;;17.03;;
8714;SDS011;4394;51.208;8.904;2024-03-08T04:06:56;30.30;;;16.77;;
8714;SDS011;4394;51.208;8.904;2024-03-08T04:09:45;31.37;;;17.73;;
8714;SDS011;4394;51.208;8.904;2024-03-08T04:12:33;30.77;;;17.50;;
8714;SDS011;4394;51.208;8.904;2024-03-08T04:15:22;30.90;;;17.33;;
8714;SDS011;4394;51.208;8.904;2024-03-08T04:18:11;29.60;;;17.53;;
8714;SDS011;4394;51.208;8.904;2024-03-08T04:21:01;26.80;;;15.87;;
8714;SDS011;4394;51.208;8.904;2024-03-08T04:23:53;30.20;;;17.13;;
8714;SDS011;4394;51.208;8.904;2024-03-08T04:26:42;30.93;;;17.53;;
8714;SDS011;4394;51.208;8.904;2024-03-08T04:29:30;29.03;;;16.40;;
8714;SDS011;4394;51.208;8.904;2024-03-08T04:32:19;32.03;;;17.43;;
8714;SDS011;4394;51.208;8.904;2024-03-08T04:35:08;30.03;;;17.47;;
8714;SDS011;4394;51.208;8.904;2024-03-08T04:38:00;31.43;;;17.40;;
8714;SDS011;4394;51.208;8.904;2024-03-08T04:40:51;29.90;;;17.57;;
8714;SDS011;4394;51.208;8.904;2024-03-08T04:43:40;31.17;;;17.77;;
8714;SDS011;4394;51.208;8.904;2024-03-08T04:46:28;28.97;;;17.17;;
8714;SDS011;4394;51.208;8.904;2024-03-08T04:49:16;28.93;;;16.67;;
8714;SDS011;4394;51.208;8.904;2024-03-08T04:52:05;33.10;;;17.43;;
8714;SDS011;4394;51.208;8.904;2024-03-08T04:54:55;30.43;;;18.13;;
8714;SDS011;4394;51.208;8.904;2024-03-08T04:57:44;32.27;;;17.63;;
8714;SDS011;4394;51.208;8.904;2024-03-08T05:00:32;29.23;;;16.80;;
8714;SDS011;4394;51.208;8.904;2024-03-08T05:03:21;30.23;;;17.50;;
8714;SDS011;4394;51.208;8.904;2024-03-08T05:06:13;29.63;;;17.27;;
8714;SDS011;4394;51.208;8.904;2024-03-08T05:09:01;32.70;;;17.70;;
8714;SDS011;4394;51.208;8.904;2024-03-08T05:12:01;29.00;;;16.97;;
8714;SDS011;4394;51.208;8.904;2024-03-08T05:14:50;31.23;;;17.77;;
8714;SDS011;4394;51.208;8.904;2024-03-08T05:17:38;30.57;;;17.00;;
8714;SDS011;4394;51.208;8.904;2024-03-08T05:20:27;35.00;;;18.63;;
8714;SDS011;4394;51.208;8.904;2024-03-08T05:23:15;31.77;;;18.07;;
8714;SDS011;4394;51.208;8.904;2024-03-08T05:26:06;32.13;;;16.83;;
8714;SDS011;4394;51.208;8.904;2024-03-08T05:28:57;31.40;;;17.47;;
8714;SDS011;4394;51.208;8.904;2024-03-08T05:31:46;33.97;;;18.40;;
8714;SDS011;4394;51.208;8.904;2024-03-08T05:34:35;34.87;;;18.53;;
8714;SDS011;4394;51.208;8.904;2024-03-08T05:37:24;33.47;;;18.30;;
8714;SDS011;4394;51.208;8.904;2024-03-08T05:40:12;31.83;;;18.17;;
8714;SDS011;4394;51.208;8.904;2024-03-08T05:43:05;37.00;;;18.03;;
8714;SDS011;4394;51.208;8.904;2024-03-08T05:45:54;34.57;;;18.43;;
8714;SDS011;4394;51.208;8.904;2024-03-08T05:48:43;35.53;;;18.37;;
8714;SDS011;4394;51.208;8.904;2024-03-08T05:51:31;28.93;;;17.50;;
8714;SDS011;4394;51.208;8.904;2024-03-08T05:54:21;31.23;;;17.53;;
8714;SDS011;4394;51.208;8.904;2024-03-08T05:57:11;31.47;;;18.27;;
8714;SDS011;4394;51.208;8.904;2024-03-08T06:00:00;31.17;;;17.07;;
8714;SDS011;4394;51.208;8.904;2024-03-08T06:02:50;36.60;;;19.63;;
8714;SDS011;4394;51.208;8.904;2024-03-08T06:05:39;32.53;;;18.53;;
8714;SDS011;4394;51.208;8.904;2024-03-08T06:08:29;33.87;;;17.67;;
8714;SDS011;4394;51.208;8.904;2024-03-08T06:11:17;29.83;;;17.30;;
8714;SDS011;4394;51.208;8.904;2024-03-08T06:14:07;29.07;;;17.77;;
8714;SDS011;4394;51.208;8.904;2024-03-08T06:16:55;31.73;;;18.50;;
8714;SDS011;4394;51.208;8.904;2024-03-08T06:19:45;34.27;;;18.73;;
8714;SDS011;4394;51.208;8.904;2024-03-08T06:22:34;32.27;;;18.40;;
8714;SDS011;4394;51.208;8.904;2024-03-08T06:25:22;32.43;;;18.10;;
8714;SDS011;4394;51.208;8.904;2024-03-08T06:28:11;34.43;;;18.77;;
8714;SDS011;4394;51.208;8.904;2024-03-08T06:31:01;31.60;;;18.33;;
8714;SDS011;4394;51.208;8.904;2024-03-08T06:33:50;34.60;;;18.77;;
8714;SDS011;4394;51.208;8.904;2024-03-08T06:36:43;32.37;;;17.70;;
8714;SDS011;4394;51.208;8.904;2024-03-08T06:39:31;36.47;;;20.30;;
8714;SDS011;4394;51.208;8.904;2024-03-08T06:42:22;32.47;;;17.97;;
8714;SDS011;4394;51.208;8.904;2024-03-08T06:45:10;36.00;;;18.83;;
8714;SDS011;4394;51.208;8.904;2024-03-08T06:47:59;34.77;;;18.83;;
8714;SDS011;4394;51.208;8.904;2024-03-08T06:50:48;34.77;;;18.40;;
8714;SDS011;4394;51.208;8.904;2024-03-08T06:53:38;34.23;;;19.30;;
8714;SDS011;4394;51.208;8.904;2024-03-08T06:56:27;35.07;;;18.80;;
8714;SDS011;4394;51.208;8.904;2024-03-08T06:59:16;32.27;;;17.87;;
8714;SDS011;4394;51.208;8.904;2024-03-08T07:02:05;31.20;;;18.40;;
8714;SDS011;4394;51.208;8.904;2024-03-08T07:04:56;33.40;;;18.73;;
8714;SDS011;4394;51.208;8.904;2024-03-08T07:07:44;32.10;;;18.53;;
8714;SDS011;4394;51.208;8.904;2024-03-08T07:10:36;35.23;;;20.63;;
8714;SDS011;4394;51.208;8.904;2024-03-08T07:13:28;35.90;;;18.70;;
8714;SDS011;4394;51.208;8.904;2024-03-08T07:16:16;29.33;;;17.70;;
8714;SDS011;4394;51.208;8.904;2024-03-08T07:19:05;33.07;;;18.17;;
8714;SDS011;4394;51.208;8.904;2024-03-08T07:21:53;35.23;;;19.20;;
8714;SDS011;4394;51.208;8.904;2024-03-08T07:24:42;32.03;;;18.93;;
8714;SDS011;4394;51.208;8.904;2024-03-08T07:27:52;32.77;;;17.90;;
8714;SDS011;4394;51.208;8.904;2024-03-08T07:30:41;36.23;;;19.00;;
8714;SDS011;4394;51.208;8.904;2024-03-08T07:33:54;35.03;;;19.23;;
8714;SDS011;4394;51.208;8.904;2024-03-08T07:36:42;32.63;;;19.00;;
8714;SDS011;4394;51.208;8.904;2024-03-08T07:39:31;35.60;;;19.63;;
8714;SDS011;4394;51.208;8.904;2024-03-08T07:42:19;33.40;;;18.87;;
8714;SDS011;4394;51.208;8.904;2024-03-08T07:45:11;33.73;;;18.63;;
8714;SDS011;4394;51.208;8.904;2024-03-08T07:47:59;33.20;;;18.03;;
8714;SDS011;4394;51.208;8.904;2024-03-08T07:50:49;33.97;;;19.70;;
8714;SDS011;4394;51.208;8.904;2024-03-08T07:53:38;28.20;;;17.37;;
8714;SDS011;4394;51.208;8.904;2024-03-08T07:56:28;32.77;;;19.10;;
8714;SDS011;4394;51.208;8.904;2024-03-08T07:59:16;34.30;;;19.63;;
8714;SDS011;4394;51.208;8.904;2024-03-08T08:02:06;31.50;;;17.70;;
8714;SDS011;4394;51.208;8.904;2024-03-08T08:04:54;29.60;;;18.27;;
8714;SDS011;4394;51.208;8.904;2024-03-08T08:07:46;31.83;;;18.03;;
8714;SDS011;4394;51.208;8.904;2024-03-08T08:10:38;30.60;;;17.83;;
8714;SDS011;4394;51.208;8.904;2024-03-08T08:13:26;36.07;;;19.80;;
8714;SDS011;4394;51.208;8.904;2024-03-08T08:16:19;29.67;;;18.13;;
8714;SDS011;4394;51.208;8.904;2024-03-08T08:19:08;31.00;;;19.17;;
8714;SDS011;4394;51.208;8.904;2024-03-08T08:22:00;33.90;;;18.27;;
8714;SDS011;4394;51.208;8.904;2024-03-08T08:24:49;33.83;;;19.73;;
8714;SDS011;4394;51.208;8.904;2024-03-08T08:27:39;34.47;;;19.33;;
8714;SDS011;4394;51.208;8.904;2024-03-08T08:30:29;28.73;;;17.77;;
8714;SDS011;4394;51.208;8.904;2024-03-08T08:33:19;32.97;;;18.93;;
8714;SDS011;4394;51.208;8.904;2024-03-08T08:36:09;30.37;;;19.07;;
8714;SDS011;4394;51.208;8.904;2024-03-08T08:38:57;30.67;;;18.87;;
8714;SDS011;4394;51.208;8.904;2024-03-08T08:41:46;33.73;;;19.07;;
8714;SDS011;4394;51.208;8.904;2024-03-08T08:44:34;33.53;;;18.63;;
8714;SDS011;4394;51.208;8.904;2024-03-08T08:47:23;32.70;;;18.77;;
8714;SDS011;4394;51.208;8.904;2024-03-08T08:50:11;32.13;;;18.83;;
8714;SDS011;4394;51.208;8.904;2024-03-08T08:53:02;29.70;;;17.73;;
8714;SDS011;4394;51.208;8.904;2024-03-08T08:55:51;32.20;;;18.40;;
8714;SDS011;4394;51.208;8.904;2024-03-08T08:58:40;30.53;;;17.93;;
8714;SDS011;4394;51.208;8.904;2024-03-08T09:01:29;30.43;;;18.37;;
8714;SDS011;4394;51.208;8.904;2024-03-08T09:04:17;30.10;;;17.73;;
8714;SDS011;4394;51.208;8.904;2024-03-08T09:07:05;31.23;;;18.97;;
8714;SDS011;4394;51.208;8.904;2024-03-08T09:09:55;32.33;;;19.43;;
8714;SDS011;4394;51.208;8.904;2024-03-08T09:12:45;33.83;;;18.73;;
8714;SDS011;4394;51.208;8.904;2024-03-08T09:15:34;30.73;;;18.40;;
8714;SDS011;4394;51.208;8.904;2024-03-08T09:18:23;33.23;;;18.27;;
8714;SDS011;4394;51.208;8.904;2024-03-08T09:21:11;29.43;;;18.00;;
8714;SDS011;4394;51.208;8.904;2024-03-08T09:24:00;29.20;;;17.87;;
8714;SDS011;4394;51.208;8.904;2024-03-08T09:26:50;30.13;;;18.20;;
8714;SDS011;4394;51.208;8.904;2024-03-08T09:29:39;28.57;;;17.57;;
8714;SDS011;4394;51.208;8.904;2024-03-08T09:32:28;26.93;;;16.77;;
8714;SDS011;4394;51.208;8.904;2024-03-08T09:35:16;29.73;;;18.00;;
8714;SDS011;4394;51.208;8.904;2024-03-08T09:38:05;29.73;;;18.33;;
8714;SDS011;4394;51.208;8.904;2024-03-08T09:40:57;30.43;;;18.23;;
8714;SDS011;4394;51.208;8.904;2024-03-08T09:43:47;31.50;;;18.40;;
8714;SDS011;4394;51.208;8.904;2024-03-08T09:46:35;30.00;;;18.37;;
8714;SDS011;4394;51.208;8.904;2024-03-08T09:49:24;29.03;;;17.37;;
8714;SDS011;4394;51.208;8.904;2024-03-08T09:52:13;28.30;;;17.90;;
8714;SDS011;4394;51.208;8.904;2024-03-08T09:55:04;29.33;;;17.63;;
8714;SDS011;4394;51.208;8.904;2024-03-08T09:57:53;28.63;;;17.07;;
8714;SDS011;4394;51.208;8.904;2024-03-08T10:01:02;29.37;;;18.03;;
8714;SDS011;4394;51.208;8.904;2024-03-08T10:03:51;30.23;;;17.97;;
8714;SDS011;4394;51.208;8.904;2024-03-08T10:06:41;30.80;;;18.60;;
8714;SDS011;4394;51.208;8.904;2024-03-08T10:09:30;27.53;;;17.10;;
8714;SDS011;4394;51.208;8.904;2024-03-08T10:12:18;26.40;;;16.30;;
8714;SDS011;4394;51.208;8.904;2024-03-08T10:15:07;24.33;;;15.33;;
8714;SDS011;4394;51.208;8.904;2024-03-08T10:17:57;25.97;;;16.40;;
8714;SDS011;4394;51.208;8.904;2024-03-08T10:20:46;24.40;;;15.00;;
8714;SDS011;4394;51.208;8.904;2024-03-08T10:23:50;26.30;;;16.43;;
8714;SDS011;4394;51.208;8.904;2024-03-08T10:26:39;28.30;;;17.27;;
8714;SDS011;4394;51.208;8.904;2024-03-08T10:29:30;26.10;;;16.67;;
8714;SDS011;4394;51.208;8.904;2024-03-08T10:32:19;23.63;;;15.10;;
8714;SDS011;4394;51.208;8.904;2024-03-08T10:35:09;23.93;;;15.87;;
8714;SDS011;4394;51.208;8.904;2024-03-08T10:37:58;26.53;;;16.73;;
8714;SDS011;4394;51.208;8.904;2024-03-08T10:40:53;23.83;;;15.60;;
8714;SDS011;4394;51.208;8.904;2024-03-08T10:43:48;26.33;;;16.57;;
8714;SDS011;4394;51.208;8.904;2024-03-08T10:46:53;25.00;;;15.90;;
8714;SDS011;4394;51.208;8.904;2024-03-08T10:49:54;23.00;;;14.80;;
8714;SDS011;4394;51.208;8.904;2024-03-08T10:52:44;22.57;;;14.30;;
8714;SDS011;4394;51.208;8.904;2024-03-08T10:55:35;21.70;;;14.30;;
8714;SDS011;4394;51.208;8.904;2024-03-08T10:58:28;21.23;;;14.37;;
8714;SDS011;4394;51.208;8.904;2024-03-08T11:01:18;21.83;;;14.53;;
8714;SDS011;4394;51.208;8.904;2024-03-08T11:04:08;23.87;;;14.37;;
8714;SDS011;4394;51.208;8.904;2024-03-08T11:07:00;22.97;;;14.20;;
8714;SDS011;4394;51.208;8.904;2024-03-08T11:09:54;22.30;;;15.10;;
8714;SDS011;4394;51.208;8.904;2024-03-08T11:12:44;22.23;;;14.40;;
8714;SDS011;4394;51.208;8.904;2024-03-08T11:15:32;22.00;;;14.30;;
8714;SDS011;4394;51.208;8.904;2024-03-08T11:18:21;20.13;;;13.90;;
8714;SDS011;4394;51.208;8.904;2024-03-08T11:21:10;21.33;;;15.27;;
8714;SDS011;4394;51.208;8.904;2024-03-08T11:24:00;23.40;;;15.10;;
8714;SDS011;4394;51.208;8.904;2024-03-08T11:26:55;21.73;;;14.60;;
8714;SDS011;4394;51.208;8.904;2024-03-08T11:29:59;22.57;;;14.83;;
8714;SDS011;4394;51.208;8.904;2024-03-08T11:32:56;21.07;;;13.83;;
8714;SDS011;4394;51.208;8.904;2024-03-08T11:35:49;21.40;;;13.70;;
8714;SDS011;4394;51.208;8.904;2024-03-08T11:38:39;23.00;;;14.67;;
8714;SDS011;4394;51.208;8.904;2024-03-08T11:41:28;21.33;;;14.83;;
8714;SDS011;4394;51.208;8.904;2024-03-08T11:44:18;19.87;;;13.67;;
8714;SDS011;4394;51.208;8.904;2024-03-08T11:47:08;21.93;;;14.40;;
8714;SDS011;4394;51.208;8.904;2024-03-08T11:49:57;20.27;;;14.03;;
8714;SDS011;4394;51.208;8.904;2024-03-08T11:52:49;19.87;;;13.30;;
8714;SDS011;4394;51.208;8.904;2024-03-08T11:55:38;20.17;;;13.27;;
8714;SDS011;4394;51.208;8.904;2024-03-08T11:58:29;22.13;;;13.93;;
8714;SDS011;4394;51.208;8.904;2024-03-08T12:01:20;20.07;;;14.03;;
8714;SDS011;4394;51.208;8.904;2024-03-08T12:04:11;20.10;;;12.97;;
8714;SDS011;4394;51.208;8.904;2024-03-08T12:07:00;22.43;;;14.60;;
8714;SDS011;4394;51.208;8.904;2024-03-08T12:13:04;18.43;;;13.53;;
8714;SDS011;4394;51.208;8.904;2024-03-08T12:15:59;21.20;;;14.10;;
8714;SDS011;4394;51.208;8.904;2024-03-08T12:18:52;19.47;;;13.63;;
8714;SDS011;4394;51.208;8.904;2024-03-08T12:21:41;21.70;;;14.13;;
8714;SDS011;4394;51.208;8.904;2024-03-08T12:24:35;20.80;;;13.93;;
8714;SDS011;4394;51.208;8.904;2024-03-08T12:27:24;20.40;;;14.10;;
8714;SDS011;4394;51.208;8.904;2024-03-08T12:30:19;20.87;;;14.53;;
8714;SDS011;4394;51.208;8.904;2024-03-08T12:33:09;20.30;;;14.53;;
8714;SDS011;4394;51.208;8.904;2024-03-08T12:36:00;24.17;;;14.77;;
8714;SDS011;4394;51.208;8.904;2024-03-08T12:38:53;21.53;;;14.63;;
8714;SDS011;4394;51.208;8.904;2024-03-08T12:41:43;21.97;;;14.97;;
8714;SDS011;4394;51.208;8.904;2024-03-08T12:44:34;23.33;;;16.43;;
8714;SDS011;4394;51.208;8.904;2024-03-08T12:47:22;25.30;;;16.57;;
8714;SDS011;4394;51.208;8.904;2024-03-08T12:50:10;23.80;;;16.30;;
8714;SDS011;4394;51.208;8.904;2024-03-08T12:53:00;21.07;;;14.47;;
8714;SDS011;4394;51.208;8.904;2024-03-08T12:55:54;28.37;;;17.90;;
8714;SDS011;4394;51.208;8.904;2024-03-08T12:58:43;23.43;;;15.70;;
8714;SDS011;4394;51.208;8.904;2024-03-08T13:01:31;24.67;;;16.17;;
8714;SDS011;4394;51.208;8.904;2024-03-08T13:04:20;29.03;;;18.30;;
8714;SDS011;4394;51.208;8.904;2024-03-08T13:07:09;24.60;;;15.53;;
8714;SDS011;4394;51.208;8.904;2024-03-08T13:09:59;27.57;;;16.47;;
8714;SDS011;4394;51.208;8.904;2024-03-08T13:12:47;26.57;;;16.13;;
8714;SDS011;4394;51.208;8.904;2024-03-08T13:15:40;33.80;;;19.97;;
8714;SDS011;4394;51.208;8.904;2024-03-08T13:18:29;32.97;;;19.40;;
8714;SDS011;4394;51.208;8.904;2024-03-08T13:21:18;29.97;;;18.00;;
8714;SDS011;4394;51.208;8.904;2024-03-08T13:24:11;25.33;;;16.43;;
8714;SDS011;4394;51.208;8.904;2024-03-08T13:27:03;24.50;;;17.17;;
8714;SDS011;4394;51.208;8.904;2024-03-08T13:30:03;27.93;;;16.73;;
8714;SDS011;4394;51.208;8.904;2024-03-08T13:32:53;27.73;;;17.57;;
8714;SDS011;4394;51.208;8.904;2024-03-08T13:35:42;24.30;;;16.03;;
8714;SDS011;4394;51.208;8.904;2024-03-08T13:38:37;25.67;;;16.40;;
8714;SDS011;4394;51.208;8.904;2024-03-08T13:41:26;24.43;;;16.43;;
8714;SDS011;4394;51.208;8.904;2024-03-08T13:44:19;22.43;;;16.07;;
8714;SDS011;4394;51.208;8.904;2024-03-08T13:47:08;30.50;;;18.70;;
8714;SDS011;4394;51.208;8.904;2024-03-08T13:49:58;29.07;;;19.23;;
8714;SDS011;4394;51.208;8.904;2024-03-08T13:52:48;28.27;;;19.20;;
8714;SDS011;4394;51.208;8.904;2024-03-08T13:55:40;27.30;;;19.43;;
8714;SDS011;4394;51.208;8.904;2024-03-08T13:58:30;24.00;;;17.30;;
8714;SDS011;4394;51.208;8.904;2024-03-08T14:01:20;20.47;;;15.07;;
8714;SDS011;4394;51.208;8.904;2024-03-08T14:04:09;22.47;;;15.03;;
8714;SDS011;4394;51.208;8.904;2024-03-08T14:07:01;23.10;;;15.90;;
8714;SDS011;4394;51.208;8.904;2024-03-08T14:09:51;25.23;;;15.97;;
8714;SDS011;4394;51.208;8.904;2024-03-08T14:12:40;24.10;;;16.40;;
8714;SDS011;4394;51.208;8.904;2024-03-08T14:15:30;24.70;;;17.23;;
8714;SDS011;4394;51.208;8.904;2024-03-08T14:18:20;22.87;;;16.07;;
8714;SDS011;4394;51.208;8.904;2024-03-08T14:21:09;22.00;;;15.87;;
8714;SDS011;4394;51.208;8.904;2024-03-08T14:23:57;22.70;;;15.83;;
8714;SDS011;4394;51.208;8.904;2024-03-08T14:26:46;21.97;;;15.43;;
8714;SDS011;4394;51.208;8.904;2024-03-08T14:29:35;22.20;;;15.13;;
8714;SDS011;4394;51.208;8.904;2024-03-08T14:32:25;24.00;;;16.10;;
8714;SDS011;4394;51.208;8.904;2024-03-08T14:35:17;21.30;;;15.97;;
8714;SDS011;4394;51.208;8.904;2024-03-08T14:38:06;21.67;;;15.37;;
8714;SDS011;4394;51.208;8.904;2024-03-08T14:40:56;25.67;;;16.63;;
8714;SDS011;4394;51.208;8.904;2024-03-08T14:43:45;21.03;;;14.77;;
8714;SDS011;4394;51.208;8.904;2024-03-08T14:46:34;22.83;;;15.13;;
8714;SDS011;4394;51.208;8.904;2024-03-08T14:49:24;22.73;;;15.33;;
8714;SDS011;4394;51.208;8.904;2024-03-08T14:52:18;20.27;;;14.23;;
8714;SDS011;4394;51.208;8.904;2024-03-08T14:55:15;21.87;;;14.57;;
8714;SDS011;4394;51.208;8.904;2024-03-08T14:58:04;21.43;;;14.70;;
8714;SDS011;4394;51.208;8.904;2024-03-08T15:00:52;22.93;;;15.27;;
8714;SDS011;4394;51.208;8.904;2024-03-08T15:03:42;21.90;;;14.87;;
8714;SDS011;4394;51.208;8.904;2024-03-08T15:06:31;20.70;;;14.63;;
8714;SDS011;4394;51.208;8.904;2024-03-08T15:09:21;25.20;;;15.33;;
8714;SDS011;4394;51.208;8.904;2024-03-08T15:12:11;23.87;;;15.93;;
8714;SDS011;4394;51.208;8.904;2024-03-08T15:15:02;23.53;;;15.87;;
8714;SDS011;4394;51.208;8.904;2024-03-08T15:17:54;21.60;;;15.33;;
8714;SDS011;4394;51.208;8.904;2024-03-08T15:20:44;23.50;;;15.30;;
8714;SDS011;4394;51.208;8.904;2024-03-08T15:23:34;21.23;;;14.87;;
8714;SDS011;4394;51.208;8.904;2024-03-08T15:26:24;20.90;;;15.30;;
8714;SDS011;4394;51.208;8.904;2024-03-08T15:29:13;21.93;;;14.60;;
8714;SDS011;4394;51.208;8.904;2024-03-08T15:32:02;21.63;;;14.37;;
8714;SDS011;4394;51.208;8.904;2024-03-08T15:35:01;21.73;;;14.50;;
8714;SDS011;4394;51.208;8.904;2024-03-08T15:38:03;21.63;;;14.87;;
8714;SDS011;4394;51.208;8.904;2024-03-08T15:40:51;21.43;;;15.23;;
8714;SDS011;4394;51.208;8.904;2024-03-08T15:43:43;21.00;;;14.17;;
8714;SDS011;4394;51.208;8.904;2024-03-08T15:46:32;22.27;;;14.67;;
8714;SDS011;4394;51.208;8.904;2024-03-08T15:49:23;20.37;;;14.37;;
8714;SDS011;4394;51.208;8.904;2024-03-08T15:52:13;19.30;;;14.33;;
8714;SDS011;4394;51.208;8.904;2024-03-08T15:55:02;22.10;;;13.70;;
8714;SDS011;4394;51.208;8.904;2024-03-08T15:57:52;19.97;;;14.53;;
8714;SDS011;4394;51.208;8.904;2024-03-08T16:00:43;20.27;;;14.50;;
8714;SDS011;4394;51.208;8.904;2024-03-08T16:03:33;21.50;;;14.57;;
8714;SDS011;4394;51.208;8.904;2024-03-08T16:06:21;22.13;;;14.93;;
8714;SDS011;4394;51.208;8.904;2024-03-08T16:09:11;22.70;;;15.40;;
8714;SDS011;4394;51.208;8.904;2024-03-08T16:12:05;24.70;;;16.93;;
8714;SDS011;4394;51.208;8.904;2024-03-08T16:15:02;26.03;;;16.93;;
8714;SDS011;4394;51.208;8.904;2024-03-08T16:17:54;25.73;;;17.07;;
8714;SDS011;4394;51.208;8.904;2024-03-08T16:20:43;26.70;;;17.93;;
8714;SDS011;4394;51.208;8.904;2024-03-08T16:23:33;29.43;;;18.80;;
8714;SDS011;4394;51.208;8.904;2024-03-08T16:26:23;25.97;;;17.63;;
8714;SDS011;4394;51.208;8.904;2024-03-08T16:29:12;26.90;;;18.57;;
8714;SDS011;4394;51.208;8.904;2024-03-08T16:32:06;28.60;;;18.10;;
8714;SDS011;4394;51.208;8.904;2024-03-08T16:35:07;27.97;;;18.43;;
8714;SDS011;4394;51.208;8.904;2024-03-08T16:38:04;29.57;;;18.93;;
8714;SDS011;4394;51.208;8.904;2024-03-08T16:41:00;28.73;;;18.13;;
8714;SDS011;4394;51.208;8.904;2024-03-08T16:43:55;29.20;;;19.30;;
8714;SDS011;4394;51.208;8.904;2024-03-08T16:46:50;28.53;;;17.70;;
8714;SDS011;4394;51.208;8.904;2024-03-08T16:49:42;25.50;;;18.23;;
8714;SDS011;4394;51.208;8.904;2024-03-08T16:52:33;28.53;;;18.63;;
8714;SDS011;4394;51.208;8.904;2024-03-08T16:55:23;30.07;;;18.73;;
8714;SDS011;4394;51.208;8.904;2024-03-08T16:58:14;27.13;;;17.57;;
8714;SDS011;4394;51.208;8.904;2024-03-08T17:01:06;29.10;;;19.73;;
8714;SDS011;4394;51.208;8.904;2024-03-08T17:03:59;31.67;;;19.63;;
8714;SDS011;4394;51.208;8.904;2024-03-08T17:06:53;30.03;;;19.00;;
8714;SDS011;4394;51.208;8.904;2024-03-08T17:09:47;28.37;;;18.33;;